Terminal Aerodrome Forecast
Issued by NWS Louisville, KY

Home | Current Version | Previous Version | Text Only | Print | Product List | Glossary On
Versions: 1 2 3 4 5 6 7 8 9 10 11 12 13 14 15
377
FTUS43 KLMK 280521
TAFBWG
TAF
KBWG 280521Z 2806/2906 14005KT P6SM -SHRA VCTS SCT025CB BKN080
     FM280900 22004KT 5SM BR BKN015
     FM281100 23004KT 3SM BR BKN007
     FM281400 22008KT 5SM BR BKN015
     FM281700 26013G20KT P6SM FEW025 SCT250
     FM290000 27005KT P6SM FEW250=

USA.gov is the U.S. government's official web portal to all federal, state and local government web resources and services.